createdAt,value
2019-04-20T00:01:28.712Z,17.87
2019-04-20T00:03:53.743Z,12.47
2019-04-20T00:06:22.340Z,13.20
2019-04-20T00:08:58.688Z,14.95
2019-04-20T00:11:28.364Z,12.43
2019-04-20T00:14:01.333Z,14.60
2019-04-20T00:16:23.090Z,18.10
2019-04-20T00:18:55.655Z,19.12
2019-04-20T00:21:49.658Z,15.43
2019-04-20T00:24:23.358Z,18.60
2019-04-20T00:29:35.319Z,14.73
2019-04-20T00:32:01.618Z,16.00
2019-04-20T00:34:27.910Z,12.70
2019-04-20T00:36:49.774Z,13.95
2019-04-20T00:39:20.184Z,16.00
2019-04-20T00:41:56.216Z,22.00
2019-04-20T00:44:26.905Z,16.67
2019-04-20T00:47:03.170Z,15.95
2019-04-20T00:49:36.040Z,14.73
2019-04-20T00:52:21.201Z,17.62
2019-04-20T00:54:22.257Z,15.40
2019-04-20T00:56:53.178Z,16.80
2019-04-20T00:59:35.401Z,14.60
2019-04-20T01:02:10.315Z,17.77
2019-04-20T01:04:44.698Z,12.37
2019-04-20T01:07:15.232Z,15.08
2019-04-20T01:10:05.243Z,16.85
2019-04-20T01:12:36.544Z,14.38
2019-04-20T01:15:11.277Z,19.65
2019-04-20T01:17:41.409Z,19.85
2019-04-20T01:20:09.131Z,13.58
2019-04-20T01:22:44.363Z,18.02
2019-04-20T01:25:16.903Z,19.50
2019-04-20T01:27:59.086Z,16.00
2019-04-20T01:30:17.460Z,16.00
2019-04-20T01:32:58.539Z,19.62
2019-04-20T01:35:30.369Z,19.42
2019-04-20T01:38:04.182Z,17.07
2019-04-20T01:40:13.091Z,15.85
2019-04-20T01:42:42.582Z,14.93
2019-04-20T01:45:19.098Z,17.37
2019-04-20T01:47:46.161Z,18.98
2019-04-20T01:50:16.682Z,18.27
2019-04-20T01:52:55.029Z,16.32
2019-04-20T01:55:41.566Z,17.15
2019-04-20T01:58:22.062Z,19.75
2019-04-20T02:00:49.148Z,20.00
2019-04-20T02:03:40.533Z,19.07
2019-04-20T02:06:09.914Z,14.78
2019-04-20T02:08:35.852Z,21.62
2019-04-20T02:11:07.369Z,19.70
2019-04-20T02:13:43.580Z,17.85
2019-04-20T02:16:15.763Z,20.32
2019-04-20T02:18:57.968Z,21.30
2019-04-20T02:21:25.877Z,19.55
2019-04-20T02:23:46.203Z,17.67
2019-04-20T02:26:07.418Z,18.00
2019-04-20T02:29:00.768Z,21.15
2019-04-20T02:34:26.085Z,20.43
2019-04-20T02:36:58.015Z,20.77
2019-04-20T02:46:55.876Z,23.90
2019-04-20T03:01:45.564Z,22.48
2019-04-20T03:04:02.917Z,21.65
2019-04-20T03:06:40.009Z,23.45
2019-04-20T03:09:21.400Z,27.02
2019-04-20T03:11:58.203Z,22.40
2019-04-20T03:14:19.140Z,23.15
2019-04-20T03:16:45.821Z,24.85
2019-04-20T03:19:17.347Z,24.20
2019-04-20T03:22:02.366Z,23.10
2019-04-20T03:24:26.825Z,23.85
2019-04-20T03:27:10.835Z,23.95
2019-04-20T03:29:55.252Z,23.77
2019-04-20T03:32:50.083Z,21.00
2019-04-20T03:37:30.612Z,27.85
2019-04-20T03:39:47.609Z,19.92
2019-04-20T03:42:07.569Z,28.60
2019-04-20T03:44:38.904Z,22.80
2019-04-20T03:47:11.479Z,26.93
2019-04-20T03:50:00.245Z,26.30
2019-04-20T03:52:43.612Z,22.73
2019-04-20T03:55:19.905Z,26.87
2019-04-20T03:58:14.315Z,23.80
2019-04-20T04:00:58.282Z,22.82
2019-04-20T04:06:09.556Z,26.97
2019-04-20T04:08:35.365Z,24.70
2019-04-20T04:11:18.865Z,22.65
2019-04-20T04:13:27.303Z,21.82
2019-04-20T04:16:02.885Z,26.27
2019-04-20T04:18:33.310Z,28.75
2019-04-20T04:21:02.908Z,23.62
2019-04-20T04:23:49.120Z,23.67
2019-04-20T04:26:18.745Z,29.60
2019-04-20T04:28:43.402Z,26.27
2019-04-20T04:31:16.569Z,29.80
2019-04-20T04:33:55.941Z,26.40
2019-04-20T04:36:15.401Z,26.37
2019-04-20T04:39:01.042Z,29.05
2019-04-20T04:41:24.231Z,29.37
2019-04-20T04:43:51.744Z,27.40
2019-04-20T04:46:03.761Z,24.27
2019-04-20T04:48:38.419Z,25.85
2019-04-20T04:51:12.866Z,25.30
2019-04-20T04:53:45.215Z,23.62
2019-04-20T04:56:09.403Z,26.52
2019-04-20T04:58:36.288Z,22.95
2019-04-20T05:01:12.672Z,24.05
2019-04-20T05:03:57.715Z,20.15
2019-04-20T05:06:29.154Z,23.70
2019-04-20T05:08:49.914Z,24.02
2019-04-20T05:11:15.216Z,31.37
2019-04-20T05:13:50.581Z,25.95
2019-04-20T05:16:37.279Z,20.30
2019-04-20T05:19:10.496Z,21.07
2019-04-20T05:22:01.375Z,22.60
2019-04-20T05:24:31.238Z,20.35
2019-04-20T05:27:13.659Z,21.97
2019-04-20T05:29:25.034Z,20.70
2019-04-20T05:31:57.183Z,17.65
2019-04-20T05:34:45.366Z,20.17
2019-04-20T05:37:17.342Z,15.95
2019-04-20T05:39:46.525Z,15.20
2019-04-20T05:42:16.192Z,18.40
2019-04-20T05:44:46.107Z,20.37
2019-04-20T05:47:19.544Z,19.10
2019-04-20T05:49:41.491Z,17.17
2019-04-20T05:52:31.509Z,20.75
2019-04-20T05:54:48.973Z,16.73
2019-04-20T05:57:21.080Z,17.67
2019-04-20T05:59:57.181Z,20.35
2019-04-20T06:02:16.946Z,18.45
2019-04-20T06:04:59.959Z,20.85
2019-04-20T06:07:24.000Z,16.75
2019-04-20T06:09:54.438Z,18.82
2019-04-20T06:12:36.306Z,15.98
2019-04-20T06:14:53.700Z,14.68
2019-04-20T06:17:44.463Z,17.32
2019-04-20T06:20:21.556Z,14.47
2019-04-20T06:22:51.361Z,14.83
2019-04-20T06:25:40.818Z,16.40
2019-04-20T06:27:52.809Z,14.47
2019-04-20T06:30:21.912Z,13.88
2019-04-20T06:33:49.903Z,14.75
2019-04-20T06:38:53.909Z,14.63
2019-04-20T06:43:34.810Z,13.60
2019-04-20T06:46:09.775Z,14.95
2019-04-20T06:48:40.315Z,16.42
2019-04-20T06:50:58.112Z,16.23
2019-04-20T06:53:45.313Z,17.30
2019-04-20T06:56:15.768Z,13.45
2019-04-20T06:58:49.773Z,11.38
2019-04-20T07:01:23.587Z,12.10
2019-04-20T07:06:35.587Z,13.40
2019-04-20T07:08:58.137Z,11.97
2019-04-20T07:11:24.063Z,13.60
2019-04-20T07:13:41.259Z,11.22
2019-04-20T07:16:36.310Z,12.40
2019-04-20T07:19:16.825Z,13.70
2019-04-20T07:24:43.134Z,14.85
2019-04-20T07:27:00.741Z,14.23
2019-04-20T07:29:40.890Z,14.65
2019-04-20T07:31:58.802Z,12.82
2019-04-20T07:34:33.502Z,11.18
2019-04-20T07:38:01.338Z,11.08
2019-04-20T07:40:07.758Z,12.43
2019-04-20T07:42:51.815Z,12.00
2019-04-20T07:45:07.454Z,12.35
2019-04-20T07:47:40.494Z,13.32
2019-04-20T07:50:02.397Z,11.95
2019-04-20T07:52:16.420Z,11.48
2019-04-20T07:55:28.543Z,12.33
2019-04-20T07:57:35.031Z,11.65
2019-04-20T08:00:08.445Z,14.47
2019-04-20T08:02:57.233Z,12.00
2019-04-20T08:05:36.934Z,11.12
2019-04-20T08:08:14.845Z,11.63
2019-04-20T08:10:39.377Z,15.65
2019-04-20T08:13:25.154Z,11.30
2019-04-20T08:15:51.213Z,11.70
2019-04-20T08:18:21.379Z,12.95
2019-04-20T08:20:47.567Z,13.50
2019-04-20T08:23:17.249Z,15.13
2019-04-20T08:25:44.610Z,11.45
2019-04-20T08:28:06.339Z,10.20
2019-04-20T08:31:02.463Z,12.45
2019-04-20T08:33:36.650Z,13.93
2019-04-20T08:36:10.757Z,12.90
2019-04-20T08:39:09.621Z,11.57
2019-04-20T08:41:09.700Z,13.18
2019-04-20T08:43:47.037Z,10.90
2019-04-20T08:46:17.753Z,12.25
2019-04-20T08:48:40.831Z,15.28
2019-04-20T08:51:16.321Z,10.23
2019-04-20T08:53:45.071Z,13.08
2019-04-20T08:56:09.826Z,12.47
2019-04-20T08:58:24.898Z,16.50
2019-04-20T09:00:58.701Z,11.40
2019-04-20T09:03:30.156Z,14.20
2019-04-20T09:06:03.533Z,12.03
2019-04-20T09:08:30.804Z,12.10
2019-04-20T09:11:16.881Z,13.70
2019-04-20T09:13:34.294Z,15.72
2019-04-20T09:15:57.917Z,11.97
2019-04-20T09:18:43.355Z,13.62
2019-04-20T09:21:19.938Z,15.78
2019-04-20T09:23:57.915Z,11.53
2019-04-20T09:26:32.758Z,10.68
2019-04-20T09:29:06.883Z,10.32
2019-04-20T09:31:48.646Z,11.40
2019-04-20T09:34:33.756Z,12.30
2019-04-20T09:37:17.894Z,10.85
2019-04-20T09:39:46.118Z,11.18
2019-04-20T09:42:21.101Z,9.23
2019-04-20T09:44:55.549Z,11.43
2019-04-20T09:47:27.440Z,11.33
2019-04-20T09:50:02.719Z,13.62
2019-04-20T09:52:31.252Z,11.85
2019-04-20T09:55:06.910Z,9.95
2019-04-20T09:57:37.962Z,13.80
2019-04-20T10:00:08.674Z,12.53
2019-04-20T10:02:27.771Z,10.85
2019-04-20T10:04:53.776Z,9.93
2019-04-20T10:07:26.149Z,9.50
2019-04-20T10:09:53.867Z,8.70
2019-04-20T10:12:24.068Z,11.12
2019-04-20T10:14:53.265Z,9.85
2019-04-20T10:17:23.446Z,9.95
2019-04-20T10:19:53.690Z,9.20
2019-04-20T10:22:22.597Z,9.00
2019-04-20T10:24:52.659Z,11.12
2019-04-20T10:27:21.726Z,11.18
2019-04-20T10:29:51.443Z,10.70
2019-04-20T10:32:25.088Z,15.03
2019-04-20T10:34:50.729Z,16.40
2019-04-20T10:37:23.866Z,9.68
2019-04-20T10:39:52.840Z,11.00
2019-04-20T10:42:21.792Z,9.18
2019-04-20T10:44:54.931Z,12.70
2019-04-20T10:47:21.168Z,8.88
2019-04-20T10:49:50.901Z,10.08
2019-04-20T10:52:20.202Z,16.60
2019-04-20T10:54:50.275Z,11.90
2019-04-20T10:57:19.522Z,12.55
2019-04-20T10:59:48.278Z,12.68
2019-04-20T11:02:16.943Z,14.30
2019-04-20T11:04:46.464Z,9.98
2019-04-20T11:07:16.362Z,9.93
2019-04-20T11:09:46.977Z,9.20
2019-04-20T11:12:16.600Z,9.33
2019-04-20T11:14:45.757Z,10.82
2019-04-20T11:17:14.555Z,12.13
2019-04-20T11:19:43.416Z,12.35
2019-04-20T11:22:12.516Z,11.80
2019-04-20T11:24:41.418Z,8.63
2019-04-20T11:27:10.108Z,9.00
2019-04-20T11:29:40.273Z,8.50
2019-04-20T11:32:10.335Z,11.73
2019-04-20T11:34:40.846Z,10.10
2019-04-20T11:37:11.027Z,12.73
2019-04-20T11:39:41.054Z,12.07
2019-04-20T11:42:10.105Z,10.10
2019-04-20T11:44:38.858Z,9.28
2019-04-20T11:47:08.458Z,10.25
2019-04-20T11:49:37.606Z,9.78
2019-04-20T11:52:07.653Z,8.23
2019-04-20T11:54:36.662Z,8.93
2019-04-20T11:57:06.956Z,13.22
2019-04-20T11:59:37.138Z,8.20
2019-04-20T12:02:30.147Z,9.60
2019-04-20T12:05:13.219Z,10.13
2019-04-20T12:07:35.256Z,8.40
2019-04-20T12:10:09.067Z,12.15
2019-04-20T12:12:41.229Z,9.15
2019-04-20T12:15:04.955Z,9.78
2019-04-20T12:17:33.637Z,9.25
2019-04-20T12:20:02.370Z,9.58
2019-04-20T12:22:32.350Z,9.53
2019-04-20T12:25:02.460Z,11.18
2019-04-20T12:27:32.431Z,10.25
2019-04-20T12:30:01.796Z,9.20
2019-04-20T12:32:38.602Z,8.48
2019-04-20T12:35:02.564Z,9.58
2019-04-20T12:37:31.376Z,9.80
2019-04-20T12:40:00.800Z,8.93
2019-04-20T12:42:30.789Z,10.32
2019-04-20T12:44:59.703Z,14.35
2019-04-20T12:47:28.376Z,9.40
2019-04-20T12:49:57.090Z,10.28
2019-04-20T12:52:26.300Z,9.08
2019-04-20T12:54:55.026Z,8.68
2019-04-20T12:57:24.754Z,7.33
2019-04-20T12:59:54.096Z,7.65
2019-04-20T13:02:23.197Z,8.90
2019-04-20T13:04:53.290Z,8.33
2019-04-20T13:07:22.963Z,9.13
2019-04-20T13:09:52.744Z,9.40
2019-04-20T13:12:32.088Z,13.70
2019-04-20T13:15:34.189Z,8.70
2019-04-20T13:18:03.653Z,10.10
2019-04-20T13:20:32.459Z,8.65
2019-04-20T13:23:03.650Z,7.90
2019-04-20T13:25:32.647Z,8.00
2019-04-20T13:28:03.067Z,10.78
2019-04-20T13:30:32.298Z,10.50
2019-04-20T13:33:01.708Z,12.13
2019-04-20T13:35:30.581Z,10.03
2019-04-20T13:38:00.306Z,8.78
2019-04-20T13:40:31.045Z,11.73
2019-04-20T13:42:59.968Z,9.93
2019-04-20T13:45:28.823Z,8.58
2019-04-20T13:47:57.434Z,11.22
2019-04-20T13:50:26.347Z,11.10
2019-04-20T13:52:55.300Z,9.50
2019-04-20T13:55:26.907Z,9.28
2019-04-20T13:58:04.230Z,8.63
2019-04-20T14:01:08.499Z,8.33
2019-04-20T14:03:38.744Z,7.70
2019-04-20T14:06:08.900Z,9.90
2019-04-20T14:08:39.250Z,9.10
2019-04-20T14:11:09.367Z,9.35
2019-04-20T14:13:45.064Z,9.13
2019-04-20T14:16:09.175Z,10.05
2019-04-20T14:18:38.042Z,9.83
2019-04-20T14:21:08.033Z,10.32
2019-04-20T14:23:37.061Z,10.38
2019-04-20T14:26:07.013Z,10.88
2019-04-20T14:28:36.742Z,11.73
2019-04-20T14:31:05.860Z,9.73
2019-04-20T14:33:34.897Z,12.53
2019-04-20T14:36:03.659Z,10.48
2019-04-20T14:38:32.353Z,10.48
2019-04-20T14:41:02.239Z,9.95
2019-04-20T14:43:32.945Z,11.88
2019-04-20T14:46:02.950Z,9.60
2019-04-20T14:48:31.863Z,9.88
2019-04-20T14:51:01.506Z,9.20
2019-04-20T14:53:31.484Z,9.50
2019-04-20T14:56:01.750Z,11.75
2019-04-20T14:58:45.242Z,10.40
2019-04-20T15:01:26.913Z,8.53
2019-04-20T15:03:59.819Z,11.53
2019-04-20T15:06:27.471Z,8.75
2019-04-20T15:08:56.675Z,9.15
2019-04-20T15:11:25.485Z,9.08
2019-04-20T15:13:54.143Z,9.10
2019-04-20T15:16:22.968Z,13.05
2019-04-20T15:19:09.792Z,9.80
2019-04-20T15:21:39.649Z,12.60
2019-04-20T15:24:09.355Z,10.68
2019-04-20T15:26:38.507Z,10.10
2019-04-20T15:29:08.422Z,12.28
2019-04-20T15:31:38.418Z,13.68
2019-04-20T15:34:08.815Z,9.75
2019-04-20T15:36:38.135Z,9.55
2019-04-20T15:39:09.300Z,10.10
2019-04-20T15:41:39.137Z,10.28
2019-04-20T15:44:09.290Z,9.90
2019-04-20T15:46:38.811Z,9.73
2019-04-20T15:49:08.575Z,10.93
2019-04-20T15:51:37.539Z,11.53
2019-04-20T15:54:07.528Z,12.55
2019-04-20T15:56:37.602Z,10.82
2019-04-20T15:59:06.508Z,12.15
2019-04-20T16:01:42.180Z,10.00
2019-04-20T16:04:37.288Z,9.33
2019-04-20T16:07:03.423Z,9.97
2019-04-20T16:09:33.666Z,10.00
2019-04-20T16:12:02.742Z,11.95
2019-04-20T16:14:31.390Z,10.98
2019-04-20T16:17:03.972Z,10.48
2019-04-20T16:19:40.690Z,13.05
2019-04-20T16:22:01.808Z,12.70
2019-04-20T16:24:34.646Z,10.90
2019-04-20T16:27:21.536Z,11.53
2019-04-20T16:29:51.609Z,11.90
2019-04-20T16:32:20.678Z,10.38
2019-04-20T16:34:50.692Z,8.95
2019-04-20T16:37:20.178Z,8.38
2019-04-20T16:39:50.329Z,10.05
2019-04-20T16:42:20.284Z,9.10
2019-04-20T16:44:49.453Z,9.75
2019-04-20T16:47:18.449Z,8.58
2019-04-20T16:49:48.718Z,11.93
2019-04-20T16:52:18.946Z,13.15
2019-04-20T16:54:48.193Z,13.85
2019-04-20T16:57:17.266Z,8.35
2019-04-20T16:59:50.524Z,7.33
2019-04-20T17:02:17.877Z,10.18
2019-04-20T17:04:47.485Z,7.03
2019-04-20T17:07:26.921Z,11.08
2019-04-20T17:09:55.970Z,9.60
2019-04-20T17:12:25.810Z,7.80
2019-04-20T17:14:55.762Z,7.65
2019-04-20T17:17:25.334Z,8.83
2019-04-20T17:19:55.407Z,7.60
2019-04-20T17:22:25.488Z,10.63
2019-04-20T17:24:55.555Z,7.53
2019-04-20T17:27:44.704Z,8.38
2019-04-20T17:30:47.843Z,10.28
2019-04-20T17:33:24.060Z,7.85
2019-04-20T17:36:03.060Z,10.98
2019-04-20T17:38:22.599Z,7.67
2019-04-20T17:41:08.761Z,8.13
2019-04-20T17:43:29.206Z,8.63
2019-04-20T17:45:59.613Z,8.35
2019-04-20T17:48:34.962Z,6.97
2019-04-20T17:51:13.949Z,7.92
2019-04-20T17:53:56.786Z,7.47
2019-04-20T17:56:22.467Z,7.42
2019-04-20T17:58:52.225Z,8.10
2019-04-20T18:01:47.837Z,7.30
2019-04-20T18:04:38.286Z,7.47
2019-04-20T18:06:52.576Z,7.78
2019-04-20T18:09:34.814Z,9.65
2019-04-20T18:11:44.907Z,7.10
2019-04-20T18:14:28.603Z,7.72
2019-04-20T18:16:58.059Z,5.85
2019-04-20T18:19:22.295Z,6.33
2019-04-20T18:21:53.807Z,9.18
2019-04-20T18:24:43.585Z,6.85
2019-04-20T18:27:23.312Z,11.40
2019-04-20T18:29:42.990Z,7.78
2019-04-20T18:32:05.130Z,6.22
2019-04-20T18:34:45.875Z,7.22
2019-04-20T18:37:16.907Z,8.28
2019-04-20T18:39:53.438Z,5.62
2019-04-20T18:42:21.289Z,6.87
2019-04-20T18:45:03.913Z,6.58
2019-04-20T18:47:37.292Z,8.35
2019-04-20T18:49:54.952Z,6.60
2019-04-20T18:52:15.760Z,4.83
2019-04-20T18:54:47.877Z,5.03
2019-04-20T18:57:21.479Z,5.17
2019-04-20T18:59:50.913Z,5.00
2019-04-20T19:02:23.082Z,6.50
2019-04-20T19:04:48.100Z,5.08
2019-04-20T19:07:17.535Z,10.85
2019-04-20T19:09:46.701Z,6.20
2019-04-20T19:12:16.529Z,4.75
2019-04-20T19:15:13.164Z,12.00
2019-04-20T19:17:52.167Z,5.57
2019-04-20T19:20:22.103Z,5.00
2019-04-20T19:22:50.733Z,5.62
2019-04-20T19:25:27.373Z,6.17
2019-04-20T19:27:54.685Z,5.17
2019-04-20T19:30:31.146Z,4.58
2019-04-20T19:33:10.846Z,6.55
2019-04-20T19:35:33.664Z,5.72
2019-04-20T19:38:03.353Z,5.17
2019-04-20T19:40:33.651Z,8.00
2019-04-20T19:43:06.993Z,4.53
2019-04-20T19:45:46.629Z,6.83
2019-04-20T19:48:12.278Z,6.15
2019-04-20T19:50:53.769Z,6.25
2019-04-20T19:53:21.158Z,7.20
2019-04-20T19:55:41.226Z,6.80
2019-04-20T19:58:08.488Z,6.25
2019-04-20T20:00:51.244Z,7.22
2019-04-20T20:03:19.733Z,9.08
2019-04-20T20:05:50.909Z,8.53
2019-04-20T20:08:23.632Z,10.38
2019-04-20T20:10:50.627Z,6.28
2019-04-20T20:13:20.424Z,7.25
2019-04-20T20:15:57.669Z,8.63
2019-04-20T20:18:35.349Z,8.33
2019-04-20T20:21:04.765Z,7.47
2019-04-20T20:23:20.621Z,11.35
2019-04-20T20:25:50.645Z,10.55
2019-04-20T20:28:30.509Z,7.35
2019-04-20T20:31:03.365Z,10.35
2019-04-20T20:33:39.253Z,7.95
2019-04-20T20:36:02.230Z,6.95
2019-04-20T20:38:28.008Z,7.87
2019-04-20T20:41:02.575Z,7.75
2019-04-20T20:43:39.861Z,8.30
2019-04-20T20:46:05.370Z,9.28
2019-04-20T20:48:37.963Z,8.15
2019-04-20T20:51:12.496Z,10.18
2019-04-20T20:53:41.381Z,7.42
2019-04-20T20:56:06.332Z,6.20
2019-04-20T20:58:36.161Z,6.17
2019-04-20T21:01:04.547Z,7.42
2019-04-20T21:03:32.270Z,7.75
2019-04-20T21:05:56.046Z,10.15
2019-04-20T21:08:25.831Z,5.50
2019-04-20T21:10:54.815Z,6.40
2019-04-20T21:13:25.938Z,9.30
2019-04-20T21:16:02.597Z,6.17
2019-04-20T21:18:43.670Z,8.63
2019-04-20T21:21:15.036Z,6.42
2019-04-20T21:23:40.995Z,9.63
2019-04-20T21:26:12.830Z,7.05
2019-04-20T21:28:40.149Z,6.28
2019-04-20T21:31:16.314Z,10.72
2019-04-20T21:33:40.970Z,8.08
2019-04-20T21:36:13.557Z,7.60
2019-04-20T21:38:42.740Z,8.98
2019-04-20T21:41:15.020Z,7.53
2019-04-20T21:43:44.406Z,9.80
2019-04-20T21:46:13.461Z,7.28
2019-04-20T21:48:58.820Z,8.45
2019-04-20T21:51:24.392Z,9.78
2019-04-20T21:53:44.162Z,11.28
2019-04-20T21:56:13.164Z,9.33
2019-04-20T21:58:49.462Z,7.20
2019-04-20T22:01:22.138Z,10.78
2019-04-20T22:03:44.918Z,8.57
2019-04-20T22:06:14.142Z,7.12
2019-04-20T22:08:49.386Z,10.48
2019-04-20T22:11:15.671Z,10.65
2019-04-20T22:13:46.423Z,11.12
2019-04-20T22:16:16.685Z,14.68
2019-04-20T22:18:50.977Z,10.00
2019-04-20T22:21:22.451Z,9.88
2019-04-20T22:24:01.814Z,9.08
2019-04-20T22:26:25.392Z,11.78
2019-04-20T22:28:47.933Z,10.45
2019-04-20T22:31:18.352Z,13.30
2019-04-20T22:33:48.694Z,9.15
2019-04-20T22:36:18.198Z,8.83
2019-04-20T22:39:07.528Z,9.35
2019-04-20T22:41:40.772Z,10.13
2019-04-20T22:44:15.452Z,13.65
2019-04-20T22:46:42.183Z,9.25
2019-04-20T22:49:29.452Z,10.95
2019-04-20T22:51:53.151Z,8.98
2019-04-20T22:54:28.015Z,8.50
2019-04-20T22:56:55.006Z,10.23
2019-04-20T22:59:16.534Z,11.95
2019-04-20T23:01:48.484Z,10.43
2019-04-20T23:04:15.008Z,9.88
2019-04-20T23:06:49.553Z,9.58
2019-04-20T23:09:16.855Z,9.30
2019-04-20T23:11:45.687Z,12.98
2019-04-20T23:14:14.505Z,9.95
2019-04-20T23:16:48.366Z,13.05
2019-04-20T23:19:14.229Z,12.60
2019-04-20T23:21:49.614Z,9.43
2019-04-20T23:24:15.351Z,13.83
2019-04-20T23:26:45.940Z,16.32
2019-04-20T23:29:15.378Z,16.62
2019-04-20T23:31:49.291Z,11.90
2019-04-20T23:34:20.140Z,14.33
2019-04-20T23:36:47.636Z,14.13
2019-04-20T23:39:16.903Z,14.15
2019-04-20T23:41:53.644Z,11.65
2019-04-20T23:44:21.047Z,9.55
2019-04-20T23:47:05.361Z,13.22
2019-04-20T23:49:53.525Z,11.73
2019-04-20T23:52:30.708Z,12.98
2019-04-20T23:54:37.213Z,13.85
2019-04-20T23:57:05.932Z,12.25
2019-04-20T23:59:39.559Z,18.35
